Time;durP1;ratioP1;P1;durP2;ratioP2;P2;SDS_P1;SDS_P2;PMS_P1;PMS_P2;Temp;Humidity;BMP_temperature;BMP_pressure;BME280_temperature;BME280_humidity;BME280_pressure;Samples;Min_cycle;Max_cycle;Signal;HPM_P1;HPM_P2
2023/04/18 00:00:34;;;;;;;47.47;2.90;;;;;;;22.71;57.99;100229.81;7309997;19;129051;-33
2023/04/18 00:02:59;;;;;;;66.20;4.03;;;;;;;22.71;58.58;100227.19;7309428;19;129038;-35
2023/04/18 00:05:25;;;;;;;92.85;5.60;;;;;;;22.71;58.80;100229.81;7309054;19;129174;-37
2023/04/18 00:07:51;;;;;;;39.28;2.40;;;;;;;22.57;58.50;100207.41;7309845;19;131286;-32
2023/04/18 00:10:17;;;;;;;27.90;1.90;;;;;;;22.70;57.58;100230.75;7308999;19;130045;-36
2023/04/18 00:12:42;;;;;;;58.38;3.42;;;;;;;22.69;57.76;100229.13;7310284;19;129591;-36
2023/04/18 00:15:08;;;;;;;59.65;3.78;;;;;;;22.71;58.06;100227.19;7306739;19;129588;-36
2023/04/18 00:17:34;;;;;;;21.20;1.67;;;;;;;22.67;58.74;100228.41;7311332;19;129295;-36
2023/04/18 00:20:05;;;;;;;17.63;1.37;;;;;;;22.68;58.13;100227.44;7316090;19;129769;-38
2023/04/18 00:22:32;;;;;;;61.90;3.53;;;;;;;22.55;58.76;100208.47;7316543;19;131920;-38
2023/04/18 00:24:58;;;;;;;45.30;2.75;;;;;;;22.68;58.70;100230.06;7315657;19;129576;-31
2023/04/18 00:27:24;;;;;;;46.30;2.90;;;;;;;22.65;58.52;100225.09;7315317;19;128962;-36
2023/04/18 00:29:49;;;;;;;41.40;2.70;;;;;;;22.65;58.78;100219.84;7314078;19;128963;-38
2023/04/18 00:32:15;;;;;;;70.75;4.28;;;;;;;22.65;58.46;100219.84;7315238;19;129560;-33
2023/04/18 00:34:40;;;;;;;39.40;2.60;;;;;;;22.58;58.13;100202.97;7315875;19;129773;-35
2023/04/18 00:37:06;;;;;;;38.35;2.40;;;;;;;22.67;58.61;100221.38;7315755;19;129223;-37
2023/04/18 00:39:34;;;;;;;34.27;2.20;;;;;;;22.63;58.24;100219.13;7313512;19;129390;-33
2023/04/18 00:42:01;;;;;;;45.97;2.72;;;;;;;22.63;58.82;100216.50;7316028;19;130154;-35
2023/04/18 00:44:26;;;;;;;;;;;;;;;22.77;58.40;100229.28;7316974;19;130708;-35
2023/04/18 00:46:51;;;;;;;28.70;1.92;;;;;;;22.69;58.54;100229.13;7315843;19;129007;-36
2023/04/18 00:49:17;;;;;;;33.67;2.50;;;;;;;22.66;58.19;100221.50;7313633;19;129236;-31
2023/04/18 00:51:43;;;;;;;53.83;3.03;;;;;;;22.67;57.87;100228.41;7316456;19;130202;-36
2023/04/18 00:54:11;;;;;;;34.83;2.43;;;;;;;22.65;58.62;100225.09;7314627;19;130827;-36
2023/04/18 00:56:37;;;;;;;52.03;3.10;;;;;;;22.63;58.37;100221.75;7314875;19;129984;-35
2023/04/18 00:59:03;;;;;;;34.47;2.45;;;;;;;22.65;58.78;100218.06;7313081;19;129309;-36
2023/04/18 01:01:29;;;;;;;62.45;3.75;;;;;;;22.67;58.44;100218.75;7314798;19;130207;-36
2023/04/18 01:03:55;;;;;;;40.43;2.63;;;;;;;22.68;58.45;100219.56;7315138;19;129136;-36
2023/04/18 01:06:20;;;;;;;45.00;2.90;;;;;;;22.66;57.98;100221.50;7314212;19;129183;-38
2023/04/18 01:08:45;;;;;;;37.33;2.53;;;;;;;22.66;58.73;100218.91;7313413;19;129430;-33
2023/04/18 01:11:11;;;;;;;30.45;2.15;;;;;;;22.63;58.79;100219.13;7314921;19;130242;-38
2023/04/18 01:13:36;;;;;;;60.38;4.03;;;;;;;22.67;58.20;100223.16;7313519;19;129747;-35
2023/04/18 01:16:02;;;;;;;41.20;2.60;;;;;;;22.66;57.96;100219.69;7314295;19;129111;-34
2023/04/18 01:18:30;;;;;;;61.50;3.97;;;;;;;22.59;58.20;100208.06;7312601;19;129328;-35
2023/04/18 01:20:58;;;;;;;50.75;3.17;;;;;;;22.63;58.95;100216.50;7314717;19;129024;-36
2023/04/18 01:23:24;;;;;;;35.42;2.35;;;;;;;22.61;58.36;100213.22;7314984;19;132730;-33
2023/04/18 01:25:50;;;;;;;32.70;2.13;;;;;;;22.53;58.48;100200.75;7313485;19;129233;-32
2023/04/18 01:28:18;;;;;;;41.15;2.78;;;;;;;22.63;58.48;100216.50;7311471;19;129133;-36
2023/04/18 01:30:43;;;;;;;61.58;3.58;;;;;;;22.62;58.74;100220.09;7313543;19;129122;-37
2023/04/18 01:33:09;;;;;;;13.27;1.20;;;;;;;22.54;58.73;100201.59;7313806;19;129612;-33
2023/04/18 01:35:34;;;;;;;54.17;3.50;;;;;;;22.61;58.99;100219.25;7311318;19;129408;-34
2023/04/18 01:38:00;;;;;;;52.05;3.33;;;;;;;22.62;58.13;100212.25;7312374;19;129018;-36
2023/04/18 01:40:26;;;;;;;29.52;2.08;;;;;;;22.62;58.29;100210.47;7313731;19;130101;-37
2023/04/18 01:42:51;;;;;;;42.60;2.73;;;;;;;22.61;58.94;100211.41;7311187;19;132385;-36
2023/04/18 01:45:18;;;;;;;64.85;4.22;;;;;;;22.62;58.37;100209.63;7313701;19;128978;-35
2023/04/18 01:47:43;;;;;;;55.38;3.70;;;;;;;22.61;58.58;100205.34;7312385;19;130182;-31
2023/04/18 01:50:09;;;;;;;46.53;2.92;;;;;;;22.60;58.93;100204.50;7314038;19;130178;-35
2023/04/18 01:52:34;;;;;;;30.20;2.00;;;;;;;22.54;58.47;100191.09;7313242;19;129215;-37
2023/04/18 01:55:01;;;;;;;40.80;2.78;;;;;;;22.59;58.80;100204.66;7312109;19;129091;-32
2023/04/18 01:57:27;;;;;;;94.63;5.40;;;;;;;22.58;58.06;100213.44;7312616;19;129675;-33
2023/04/18 01:59:52;;;;;;;68.57;4.15;;;;;;;22.57;58.05;100214.44;7313510;19;130733;-36
2023/04/18 02:02:18;;;;;;;24.85;2.03;;;;;;;22.56;58.89;100216.22;7314031;19;129230;-35
2023/04/18 02:04:43;;;;;;;63.10;4.15;;;;;;;22.57;58.64;100212.66;7313180;19;129517;-39
2023/04/18 02:07:09;;;;;;;55.90;3.42;;;;;;;22.56;59.05;100216.22;7313375;19;128993;-33
2023/04/18 02:09:34;;;;;;;28.87;2.00;;;;;;;22.55;58.47;100221.59;7311121;19;130156;-34
2023/04/18 02:12:01;;;;;;;38.13;2.55;;;;;;;22.52;58.58;100203.47;7313140;19;131202;-36
2023/04/18 02:14:31;;;;;;;27.75;2.17;;;;;;;22.55;58.65;100209.31;7313246;19;129470;-32
2023/04/18 02:16:57;;;;;;;73.47;4.63;;;;;;;22.54;58.39;100204.22;7311976;19;129489;-34
2023/04/18 02:19:23;;;;;;;29.23;2.03;;;;;;;22.51;58.00;100204.44;7311123;19;129519;-35
2023/04/18 02:21:49;;;;;;;47.23;3.13;;;;;;;22.53;58.88;100211.22;7313402;19;130470;-34
2023/04/18 02:24:14;;;;;;;36.23;2.43;;;;;;;22.54;58.55;100202.44;7312452;19;129310;-35
2023/04/18 02:26:39;;;;;;;57.30;3.63;;;;;;;22.56;59.07;100212.78;7312684;19;129675;-36
2023/04/18 02:29:05;;;;;;;19.38;1.75;;;;;;;22.57;58.70;100211.81;7311305;19;129685;-35
2023/04/18 02:31:30;;;;;;;35.28;2.53;;;;;;;22.56;58.71;100207.53;7312788;19;129629;-32
2023/04/18 02:33:56;;;;;;;48.85;3.50;;;;;;;22.57;58.45;100210.03;7311831;19;129393;-38
2023/04/18 02:36:22;;;;;;;50.15;3.22;;;;;;;22.54;58.87;100207.66;7312259;19;129070;-37
2023/04/18 02:38:47;;;;;;;51.07;3.47;;;;;;;22.55;58.91;100211.09;7311196;19;130198;-37
2023/04/18 02:41:16;;;;;;;45.20;2.93;;;;;;;22.46;58.74;100198.75;7310504;19;130416;-35
2023/04/18 02:43:41;;;;;;;60.03;4.10;;;;;;;22.52;58.69;100203.47;7311818;19;129174;-35
2023/04/18 02:46:06;;;;;;;82.55;5.00;;;;;;;22.52;58.83;100204.31;7310580;19;131324;-38
2023/04/18 02:48:32;;;;;;;39.30;2.70;;;;;;;22.52;58.78;100211.34;7310216;19;129561;-36
2023/04/18 02:51:02;;;;;;;44.85;3.33;;;;;;;22.54;58.31;100207.66;7310738;19;130535;-39
2023/04/18 02:53:27;;;;;;;44.85;3.17;;;;;;;22.53;58.39;100205.16;7313301;19;129405;-35
2023/04/18 02:55:53;;;;;;;52.60;3.22;;;;;;;22.50;58.92;100205.38;7309739;19;129083;-38
2023/04/18 02:58:18;;;;;;;40.65;3.28;;;;;;;22.49;58.86;100215.06;7311216;19;128985;-33
2023/04/18 03:00:43;;;;;;;36.75;2.75;;;;;;;22.52;58.92;100208.72;7312937;19;129244;-38
2023/04/18 03:03:09;;;;;;;63.30;3.85;;;;;;;22.51;58.25;100218.34;7312686;19;129599;-33
2023/04/18 03:05:34;;;;;;;49.13;3.13;;;;;;;22.49;58.86;100219.47;7311338;19;129274;-35
2023/04/18 03:07:59;;;;;;;57.63;3.87;;;;;;;22.49;58.67;100220.31;7310658;19;130169;-32
2023/04/18 03:10:25;;;;;;;36.40;2.80;;;;;;;22.50;58.58;100215.88;7312528;19;129741;-33
2023/04/18 03:12:50;;;;;;;56.77;3.70;;;;;;;22.49;58.78;100219.47;7310928;19;129651;-34
2023/04/18 03:15:15;;;;;;;57.77;4.10;;;;;;;22.48;58.59;100213.38;7310099;19;129276;-36
2023/04/18 03:17:42;;;;;;;45.42;2.95;;;;;;;22.48;58.49;100218.63;7310898;19;130174;-35
2023/04/18 03:20:09;;;;;;;37.95;2.67;;;;;;;22.51;58.11;100220.16;7311677;19;129459;-33
2023/04/18 03:22:34;;;;;;;60.67;3.78;;;;;;;22.45;58.15;100223.28;7310504;19;128916;-34
2023/04/18 03:24:59;;;;;;;47.38;3.20;;;;;;;22.45;59.06;100223.28;7312703;19;129691;-37
2023/04/18 03:27:25;;;;;;;34.30;2.50;;;;;;;22.46;58.53;100219.72;7310592;19;129817;-34
2023/04/18 03:29:50;;;;;;;38.97;2.92;;;;;;;22.45;58.12;100218.88;7311414;19;129239;-31
2023/04/18 03:32:16;;;;;;;67.82;4.30;;;;;;;22.35;58.43;100206.69;7311261;19;128903;-36
2023/04/18 03:34:41;;;;;;;33.25;2.40;;;;;;;22.44;58.14;100226.88;7311717;19;129771;-31
2023/04/18 03:37:06;;;;;;;32.45;2.65;;;;;;;22.39;58.83;100224.66;7310478;19;130710;-40
2023/04/18 03:39:32;;;;;;;36.50;2.60;;;;;;;22.20;57.52;100223.69;7308549;19;129604;-36
2023/04/18 03:41:57;;;;;;;58.22;3.85;;;;;;;21.77;57.46;100227.25;7311096;19;129395;-34
2023/04/18 03:44:22;;;;;;;30.03;2.27;;;;;;;21.69;58.11;100224.41;7312626;19;129784;-35
2023/04/18 03:46:48;;;;;;;20.40;1.92;;;;;;;21.69;58.56;100219.16;7311238;19;129062;-30
2023/04/18 03:49:13;;;;;;;64.97;4.10;;;;;;;21.65;58.08;100203.84;7308148;19;130247;-34
2023/04/18 03:51:46;;;;;;;45.25;3.05;;;;;;;21.78;57.81;100223.66;7313907;19;129828;-32
2023/04/18 03:54:11;;;;;;;48.58;3.22;;;;;;;21.84;57.67;100225.78;7316606;19;129176;-38
2023/04/18 03:56:36;;;;;;;47.50;3.25;;;;;;;21.89;57.71;100226.25;7316461;19;130288;-37
2023/04/18 03:59:02;;;;;;;47.10;3.03;;;;;;;21.93;57.58;100218.97;7315129;19;130053;-37
2023/04/18 04:01:27;;;;;;;62.85;4.32;;;;;;;21.92;57.38;100214.69;7316819;19;129258;-35
2023/04/18 04:03:53;;;;;;;72.30;4.47;;;;;;;22.07;57.46;100238.75;7317648;19;128894;-31
2023/04/18 04:06:18;;;;;;;46.83;3.35;;;;;;;22.12;56.93;100232.19;7316500;19;129517;-34
2023/04/18 04:08:43;;;;;;;45.83;3.05;;;;;;;22.11;57.88;100232.31;7316021;19;129895;-38
2023/04/18 04:11:09;;;;;;;34.05;2.72;;;;;;;22.04;57.56;100216.28;7318538;19;129217;-31
2023/04/18 04:13:34;;;;;;;44.03;2.97;;;;;;;22.21;57.13;100238.47;7317200;19;131450;-34
2023/04/18 04:16:00;;;;;;;37.13;2.63;;;;;;;22.27;57.15;100245.78;7313806;19;131036;-35
2023/04/18 04:18:29;;;;;;;60.95;4.20;;;;;;;22.33;57.04;100240.88;7315396;19;129208;-39
2023/04/18 04:20:56;;;;;;;46.05;3.20;;;;;;;22.41;56.77;100248.09;7315703;19;129281;-36
2023/04/18 04:23:24;;;;;;;41.25;2.97;;;;;;;22.39;56.69;100245.63;7315264;19;129023;-36
2023/04/18 04:25:53;;;;;;;31.40;2.38;;;;;;;22.42;56.81;100250.59;7314893;19;130953;-34
2023/04/18 04:28:22;;;;;;;68.47;4.30;;;;;;;22.40;56.92;100249.88;7311963;19;130518;-39
2023/04/18 04:30:49;;;;;;;62.95;3.88;;;;;;;22.36;57.16;100251.09;7316070;19;129650;-34
2023/04/18 04:33:19;;;;;;;36.28;2.85;;;;;;;22.40;57.02;100246.44;7316931;19;129435;-40
2023/04/18 04:35:48;;;;;;;14.98;1.52;;;;;;;22.40;56.47;100251.66;7313508;19;130807;-33
2023/04/18 04:38:14;;;;;;;41.75;3.60;;;;;;;22.30;57.56;100250.78;7313151;19;130561;-35
2023/04/18 04:40:40;;;;;;;40.35;2.85;;;;;;;22.26;56.82;100254.63;7315665;19;129568;-36
2023/04/18 04:43:05;;;;;;;36.70;2.80;;;;;;;22.19;56.83;100253.47;7317817;19;129220;-34
2023/04/18 04:45:31;;;;;;;41.20;3.00;;;;;;;22.16;57.16;100264.19;7315309;19;130364;-37
2023/04/18 04:47:57;;;;;;;41.45;3.03;;;;;;;22.11;57.64;100266.38;7314108;19;131141;-39
2023/04/18 04:50:22;;;;;;;48.80;3.50;;;;;;;21.93;57.78;100253.00;7315838;19;129249;-35
2023/04/18 04:52:48;;;;;;;50.87;3.53;;;;;;;22.04;58.20;100276.53;7312738;19;128862;-39
2023/04/18 04:55:14;;;;;;;149.32;9.90;;;;;;;21.98;58.02;100275.22;7290670;19;130815;-36
2023/04/18 04:57:40;;;;;;;118.30;7.70;;;;;;;22.02;58.53;100278.44;7288130;19;130468;-40
2023/04/18 05:00:07;;;;;;;52.00;3.53;;;;;;;21.96;57.96;100278.94;7299550;19;130382;-41
2023/04/18 05:02:32;;;;;;;240.27;16.27;;;;;;;21.98;57.98;100282.28;7303379;19;130316;-40
2023/04/18 05:04:58;;;;;;;50.08;3.72;;;;;;;21.98;57.75;100277.03;7302225;19;131349;-41
2023/04/18 05:07:23;;;;;;;55.03;4.00;;;;;;;21.95;57.54;100277.25;7314088;19;130439;-42
2023/04/18 05:09:49;;;;;;;83.97;5.40;;;;;;;21.98;57.85;100276.19;7314061;19;129660;-39
2023/04/18 05:12:14;;;;;;;24.45;2.17;;;;;;;21.98;58.35;100276.19;7312951;19;130272;-40
2023/04/18 05:14:39;;;;;;;46.23;3.47;;;;;;;22.02;57.67;100283.66;7313884;19;130670;-42
2023/04/18 05:17:06;;;;;;;47.35;3.70;;;;;;;22.03;58.22;100277.50;7312047;19;130356;-42
2023/04/18 05:19:31;;;;;;;46.78;3.40;;;;;;;22.10;57.46;100291.72;7307962;19;130680;-38
2023/04/18 05:21:57;;;;;;;32.80;2.63;;;;;;;22.11;57.69;100284.69;7314276;19;129468;-41
2023/04/18 05:24:22;;;;;;;31.07;2.70;;;;;;;22.13;57.78;100285.41;7311773;19;129275;-42
2023/04/18 05:26:47;;;;;;;58.35;4.10;;;;;;;22.08;57.98;100298.06;7312808;19;129626;-41
2023/04/18 05:29:13;;;;;;;40.10;2.90;;;;;;;22.06;57.92;100289.47;7311466;19;129304;-37
2023/04/18 05:31:38;;;;;;;29.02;2.50;;;;;;;22.08;57.64;100296.25;7313855;19;129107;-40
2023/04/18 05:34:03;;;;;;;72.03;4.57;;;;;;;21.95;57.47;100283.34;7308840;19;130542;-41
2023/04/18 05:36:29;;;;;;;44.17;4.53;;;;;;;22.07;55.94;100291.13;7308792;19;130283;-42
2023/04/18 05:38:54;;;;;;;37.77;4.47;;;;;;;21.86;55.18;100273.63;7312849;19;129998;-41
2023/04/18 05:41:19;;;;;;;45.60;6.05;;;;;;;22.02;54.68;100288.06;7313135;19;129377;-41
2023/04/18 05:43:45;;;;;;;31.53;4.10;;;;;;;22.06;54.43;100294.72;7313507;19;130102;-42
2023/04/18 05:46:11;;;;;;;48.85;5.10;;;;;;;22.05;54.69;100293.06;7312594;19;129434;-40
2023/04/18 05:48:36;;;;;;;35.45;4.75;;;;;;;22.03;55.57;100295.81;7313025;19;129048;-43
2023/04/18 05:51:02;;;;;;;18.97;4.00;;;;;;;22.13;55.00;100301.13;7313919;19;129062;-41
2023/04/18 05:53:27;;;;;;;47.88;5.45;;;;;;;22.17;55.09;100290.25;7313757;19;130173;-39
2023/04/18 05:55:53;;;;;;;46.97;4.85;;;;;;;22.26;55.03;100301.78;7311819;19;130506;-41
2023/04/18 05:58:18;;;;;;;35.37;4.77;;;;;;;22.30;55.43;100293.53;7311021;19;129073;-38
2023/04/18 06:00:43;;;;;;;33.43;4.90;;;;;;;22.36;55.99;100297.44;7315428;19;129125;-40
2023/04/18 06:03:09;;;;;;;59.05;5.70;;;;;;;22.44;55.59;100300.25;7313631;19;129590;-39
2023/04/18 06:05:34;;;;;;;46.83;5.00;;;;;;;22.47;55.45;100300.81;7313901;19;129314;-38
2023/04/18 06:07:59;;;;;;;31.75;4.00;;;;;;;22.53;55.02;100305.56;7314286;19;129688;-32
2023/04/18 06:10:25;;;;;;;60.45;5.93;;;;;;;22.53;55.31;100304.72;7311564;19;128988;-32
2023/04/18 06:12:50;;;;;;;59.83;5.70;;;;;;;22.55;54.83;100302.81;7312881;19;130266;-37
2023/04/18 06:15:15;;;;;;;56.95;5.82;;;;;;;22.51;55.17;100302.22;7312770;19;129252;-33
2023/04/18 06:17:41;;;;;;;63.97;6.47;;;;;;;22.56;55.41;100307.13;7309267;19;129166;-30
2023/04/18 06:20:08;;;;;;;33.60;4.63;;;;;;;22.58;55.44;100302.56;7314187;19;129321;-34
2023/04/18 06:22:33;;;;;;;57.63;5.43;;;;;;;22.61;55.34;100313.63;7312410;19;130212;-33
2023/04/18 06:24:59;;;;;;;33.00;4.63;;;;;;;22.61;55.32;100304.94;7314032;19;130716;-43
2023/04/18 06:27:27;;;;;;;50.97;5.53;;;;;;;22.60;55.36;100311.13;7310744;19;130924;-39
2023/04/18 06:29:53;;;;;;;41.42;5.13;;;;;;;22.56;55.29;100314.97;7311869;19;131054;-41
2023/04/18 06:32:18;;;;;;;38.23;4.60;;;;;;;22.50;56.21;100316.28;7312893;19;130757;-41
2023/04/18 06:34:43;;;;;;;60.93;6.43;;;;;;;22.52;56.05;100318.78;7311254;19;129508;-40
2023/04/18 06:37:10;;;;;;;43.88;5.53;;;;;;;22.52;56.44;100324.00;7311392;19;129298;-40
2023/04/18 06:39:35;;;;;;;29.63;3.75;;;;;;;22.53;56.04;100321.28;7310279;19;130323;-37
2023/04/18 06:42:01;;;;;;;55.17;5.47;;;;;;;22.62;56.70;100319.69;7313299;19;130484;-42
2023/04/18 06:44:27;;;;;;;28.52;4.03;;;;;;;22.61;56.16;100320.66;7311482;19;130530;-44
2023/04/18 06:46:52;;;;;;;18.63;3.88;;;;;;;22.68;56.41;100327.03;7311509;19;129115;-40
2023/04/18 06:49:17;;;;;;;42.60;4.78;;;;;;;22.69;56.10;100320.84;7308782;19;129539;-41
2023/04/18 06:51:43;;;;;;;33.38;4.18;;;;;;;22.71;56.64;100327.63;7312184;19;129556;-41
2023/04/18 06:54:08;;;;;;;44.77;5.60;;;;;;;22.75;56.13;100330.81;7310746;19;129958;-40
2023/04/18 06:56:33;;;;;;;29.23;3.83;;;;;;;22.68;55.66;100320.00;7308442;19;129963;-42
2023/04/18 06:58:59;;;;;;;58.13;5.50;;;;;;;22.87;56.09;100320.09;7308351;19;129712;-37
2023/04/18 07:01:24;;;;;;;66.43;6.13;;;;;;;22.90;56.22;100329.53;7310832;19;131000;-38
2023/04/18 07:03:49;;;;;;;31.80;4.13;;;;;;;22.93;56.10;100324.00;7313288;19;130328;-39
2023/04/18 07:06:15;;;;;;;67.83;5.97;;;;;;;22.88;56.13;100320.94;7311877;19;129142;-42
2023/04/18 07:08:40;;;;;;;58.40;5.80;;;;;;;22.80;55.88;100321.63;7310884;19;130989;-43
2023/04/18 07:11:06;;;;;;;39.83;4.53;;;;;;;22.74;56.22;100319.50;7312586;19;130557;-41
2023/04/18 07:13:31;;;;;;;36.35;4.53;;;;;;;22.70;56.13;100325.97;7311218;19;129369;-42
2023/04/18 07:15:56;;;;;;;41.20;4.93;;;;;;;22.63;56.17;100321.34;7308161;19;129076;-42
2023/04/18 07:18:22;;;;;;;43.50;4.70;;;;;;;22.61;57.26;100312.81;7309591;19;129081;-41
2023/04/18 07:20:47;;;;;;;31.90;4.43;;;;;;;22.68;56.36;100332.28;7310432;19;129666;-40
2023/04/18 07:23:12;;;;;;;45.85;4.78;;;;;;;22.66;56.86;100321.94;7310469;19;129610;-39
2023/04/18 07:25:38;;;;;;;59.88;5.90;;;;;;;22.73;56.66;100333.56;7310303;19;129313;-36
2023/04/18 07:28:04;;;;;;;53.28;5.55;;;;;;;22.80;56.42;100337.34;7309668;19;128949;-39
2023/04/18 07:30:29;;;;;;;34.03;4.90;;;;;;;22.93;56.22;100345.00;7311049;19;130957;-38
2023/04/18 07:32:54;;;;;;;25.10;3.97;;;;;;;22.96;56.16;100342.94;7309727;19;130898;-36
2023/04/18 07:35:20;;;;;;;69.38;6.75;;;;;;;22.91;54.00;100328.53;7308984;19;129118;-38
2023/04/18 07:37:46;;;;;;;48.63;5.43;;;;;;;22.91;51.01;100346.91;7308449;19;129412;-38
2023/04/18 07:40:11;;;;;;;20.00;4.67;;;;;;;22.85;50.32;100347.44;7310356;19;129120;-37
2023/04/18 07:42:37;;;;;;;38.27;5.10;;;;;;;22.83;51.72;100342.31;7309883;19;131505;-33
2023/04/18 07:45:02;;;;;;;58.58;6.18;;;;;;;22.78;53.24;100335.78;7309300;19;129463;-39
2023/04/18 07:47:28;;;;;;;41.70;5.17;;;;;;;22.91;53.39;100344.28;7309321;19;130195;-37
2023/04/18 07:49:53;;;;;;;24.40;4.20;;;;;;;22.92;54.15;100340.72;7305825;19;129566;-41
2023/04/18 07:52:19;;;;;;;43.80;5.13;;;;;;;22.85;53.89;100339.56;7310609;19;129235;-36
2023/04/18 07:54:44;;;;;;;49.70;5.30;;;;;;;22.82;53.95;100342.44;7307920;19;130034;-38
2023/04/18 07:57:10;;;;;;;39.65;5.03;;;;;;;22.75;54.71;100343.91;7308703;19;129394;-41
2023/04/18 07:59:35;;;;;;;43.53;5.00;;;;;;;22.68;54.75;100346.22;7306485;19;130550;-37
2023/04/18 08:02:01;;;;;;;49.80;5.38;;;;;;;22.64;54.83;100336.13;7309680;19;130667;-38
2023/04/18 08:04:27;;;;;;;64.63;6.60;;;;;;;22.69;55.33;100337.38;7308527;19;129169;-37
2023/04/18 08:06:52;;;;;;;56.50;5.70;;;;;;;22.74;55.85;100340.47;7308385;19;130322;-37
2023/04/18 08:09:19;;;;;;;35.53;4.40;;;;;;;22.85;55.49;100340.41;7306871;19;129404;-34
2023/04/18 08:11:45;;;;;;;;;;;;;;;22.87;55.03;100345.53;7309395;19;131214;-36
2023/04/18 08:14:10;;;;;;;55.75;5.68;;;;;;;22.83;55.21;100346.72;7310182;19;129280;-33
2023/04/18 08:16:36;;;;;;;39.42;4.80;;;;;;;22.86;55.21;100343.84;7305030;19;130636;-37
2023/04/18 08:19:01;;;;;;;29.88;4.38;;;;;;;22.78;55.76;100314.81;7307712;19;129294;-36
2023/04/18 08:21:27;;;;;;;40.87;4.93;;;;;;;22.95;55.33;100333.44;7306625;19;129612;-37
2023/04/18 08:23:52;;;;;;;48.13;5.37;;;;;;;22.90;55.06;100334.75;7309908;19;129068;-38
2023/04/18 08:26:18;;;;;;;36.67;4.73;;;;;;;22.93;55.56;100339.75;7308815;19;130186;-40
2023/04/18 08:28:43;;;;;;;34.78;4.80;;;;;;;22.98;55.63;100348.91;7306992;19;130400;-40
2023/04/18 08:31:13;;;;;;;36.63;4.67;;;;;;;23.02;54.87;100345.03;7307572;19;130423;-38
2023/04/18 08:33:39;;;;;;;45.92;5.25;;;;;;;23.03;54.78;100348.50;7308636;19;129548;-36
2023/04/18 08:36:04;;;;;;;31.63;4.17;;;;;;;22.87;55.43;100329.78;7306863;19;129031;-37
2023/04/18 08:38:30;;;;;;;30.63;4.28;;;;;;;22.97;55.39;100343.78;7309688;19;130315;-38
2023/04/18 08:40:55;;;;;;;50.35;5.45;;;;;;;22.91;55.39;100346.91;7313405;19;130326;-38
2023/04/18 08:43:21;;;;;;;47.43;4.70;;;;;;;22.86;55.77;100343.84;7316683;19;129677;-38
2023/04/18 08:45:47;;;;;;;49.85;5.40;;;;;;;22.77;55.72;100339.38;7315510;19;129592;-36
2023/04/18 08:48:14;;;;;;;57.23;5.60;;;;;;;22.80;56.02;100344.38;7315449;19;130329;-37
2023/04/18 08:50:40;;;;;;;51.75;5.70;;;;;;;22.82;55.98;100352.94;7317676;19;130864;-37
2023/04/18 08:53:06;;;;;;;72.75;6.57;;;;;;;22.75;56.59;100330.81;7315376;19;128984;-35
2023/04/18 08:55:34;;;;;;;33.70;4.40;;;;;;;22.92;55.55;100351.22;7313394;19;130269;-36
2023/04/18 08:58:01;;;;;;;43.15;5.13;;;;;;;22.98;55.52;100345.44;7313974;19;130173;-37
2023/04/18 09:00:28;;;;;;;52.67;5.10;;;;;;;22.94;56.02;100336.19;7316463;19;130061;-39
2023/04/18 09:02:55;;;;;;;52.35;5.45;;;;;;;22.98;55.48;100345.44;7313763;19;129153;-38
2023/04/18 09:05:23;;;;;;;30.98;4.55;;;;;;;22.93;56.13;100350.22;7314102;19;129821;-39
2023/04/18 09:07:51;;;;;;;40.85;4.80;;;;;;;23.09;55.94;100355.81;7313882;19;131162;-33
2023/04/18 09:10:29;;;;;;;43.22;5.15;;;;;;;23.01;55.50;100353.88;7314437;19;130441;-41
2023/04/18 09:12:56;;;;;;;72.70;7.40;;;;;;;22.97;55.58;100351.66;7312885;19;128869;-42
2023/04/18 09:15:23;;;;;;;;;;;;;;;23.03;55.69;100351.13;7314020;19;128944;-41
2023/04/18 09:17:54;;;;;;;44.42;5.28;;;;;;;23.13;55.42;100354.63;7313380;19;129430;-41
2023/04/18 09:20:36;;;;;;;70.40;6.35;;;;;;;23.06;56.02;100354.31;7312075;19;130582;-38
2023/04/18 09:23:09;;;;;;;42.83;5.70;;;;;;;22.85;51.46;100352.69;7311281;19;130845;-39
2023/04/18 09:25:36;;;;;;;52.40;6.25;;;;;;;22.71;50.97;100360.88;7314703;19;129060;-34
2023/04/18 09:28:04;;;;;;;56.22;5.90;;;;;;;22.59;50.70;100354.03;7313427;19;130839;-36
2023/04/18 09:30:39;;;;;;;35.35;5.18;;;;;;;22.49;51.52;100353.94;7314566;19;130638;-36
2023/04/18 09:33:11;;;;;;;49.80;5.85;;;;;;;22.44;51.15;100352.66;7314104;19;129153;-34
2023/04/18 09:35:37;;;;;;;37.45;5.22;;;;;;;22.34;51.25;100356.97;7313048;19;129420;-36
2023/04/18 09:38:03;;;;;;;70.77;7.43;;;;;;;22.21;51.47;100338.00;7313065;19;130232;-39
2023/04/18 09:40:29;;;;;;;36.17;6.38;;;;;;;22.24;49.66;100363.94;7311098;19;132702;-36
2023/04/18 09:42:55;;;;;;;95.63;11.88;;;;;;;22.15;45.52;100354.22;7312861;19;130816;-36
2023/04/18 09:45:21;;;;;;;67.87;10.43;;;;;;;22.20;44.95;100354.66;7312944;19;129252;-44
2023/04/18 09:47:47;;;;;;;41.72;9.50;;;;;;;22.28;46.31;100355.69;7314093;19;130541;-39
2023/04/18 09:50:15;;;;;;;56.60;8.52;;;;;;;22.37;47.75;100360.19;7312430;19;129569;-37
2023/04/18 09:52:42;;;;;;;34.25;7.35;;;;;;;22.46;48.18;100355.97;7314193;19;129591;-33
2023/04/18 09:55:10;;;;;;;47.25;8.48;;;;;;;22.50;48.86;100352.97;7310781;19;129180;-35
2023/04/18 09:57:39;;;;;;;65.68;8.93;;;;;;;22.51;48.57;100353.81;7313526;19;130301;-35
2023/04/18 10:00:16;;;;;;;37.80;6.72;;;;;;;22.47;49.55;100355.00;7314527;19;130462;-34
2023/04/18 10:02:55;;;;;;;41.87;7.73;;;;;;;22.42;50.85;100359.78;7311188;19;129822;-38
2023/04/18 10:05:25;;;;;;;60.55;8.40;;;;;;;22.44;51.10;100356.09;7313799;19;129134;-33
2023/04/18 10:07:52;;;;;;;33.72;6.60;;;;;;;22.50;52.25;100362.63;7312712;19;130647;-37
2023/04/18 10:10:18;;;;;;;38.03;6.75;;;;;;;22.54;51.40;100361.44;7313588;19;130382;-39
2023/04/18 10:12:46;;;;;;;59.67;7.77;;;;;;;22.55;51.90;100360.47;7313107;19;129834;-41
2023/04/18 10:15:14;;;;;;;50.40;7.72;;;;;;;22.52;52.24;100356.31;7313603;19;128851;-37
2023/04/18 10:17:42;;;;;;;51.58;7.43;;;;;;;22.51;52.09;100357.25;7311450;19;130133;-31
2023/04/18 10:20:11;;;;;;;33.50;6.70;;;;;;;22.51;52.96;100359.06;7314805;19;130482;-34
2023/04/18 10:22:36;;;;;;;65.25;7.50;;;;;;;22.47;52.67;100362.88;7312976;19;128938;-38
2023/04/18 10:25:02;;;;;;;39.97;6.83;;;;;;;22.38;53.27;100347.94;7312723;19;129100;-39
2023/04/18 10:27:46;;;;;;;30.90;6.30;;;;;;;22.48;53.71;100354.03;7311793;19;130201;-34
2023/04/18 10:30:12;;;;;;;33.97;6.32;;;;;;;22.55;53.37;100353.44;7313244;19;129300;-31
2023/04/18 10:32:38;;;;;;;36.67;6.77;;;;;;;22.62;53.73;100357.22;7312153;19;129700;-36
2023/04/18 10:35:04;;;;;;;39.38;6.47;;;;;;;22.73;53.32;100356.31;7313091;19;129000;-38
2023/04/18 10:37:30;;;;;;;38.60;6.18;;;;;;;22.73;53.64;100365.03;7313069;19;129461;-33
2023/04/18 10:39:59;;;;;;;40.30;6.65;;;;;;;22.75;53.80;100357.03;7310968;19;130354;-31
2023/04/18 10:42:45;;;;;;;44.22;6.50;;;;;;;22.77;53.51;100348.09;7313157;19;130678;-42
2023/04/18 10:45:21;;;;;;;71.07;7.78;;;;;;;22.79;53.65;100350.59;7312727;19;129114;-38
2023/04/18 10:47:47;;;;;;;61.25;7.25;;;;;;;22.76;54.39;100350.81;7310913;19;130180;-39
2023/04/18 10:50:13;;;;;;;22.75;5.22;;;;;;;22.88;53.88;100352.41;7313197;19;129322;-33
2023/04/18 10:52:39;;;;;;;42.90;6.47;;;;;;;22.85;54.15;100355.31;7312251;19;129265;-32
2023/04/18 10:55:12;;;;;;;43.23;6.37;;;;;;;22.94;53.56;100349.28;7311810;19;129249;-35
2023/04/18 10:57:47;;;;;;;47.05;5.90;;;;;;;22.92;53.29;100348.59;7312149;19;130124;-38
2023/04/18 11:00:16;;;;;;;42.45;5.63;;;;;;;22.88;53.65;100352.41;7313400;19;130798;-34
2023/04/18 11:02:58;;;;;;;36.53;5.95;;;;;;;22.83;54.13;100344.94;7310765;19;129090;-38
2023/04/18 11:05:28;;;;;;;43.97;6.10;;;;;;;22.79;54.41;100348.78;7311821;19;129815;-35